Time;durP1;ratioP1;P1;durP2;ratioP2;P2;SDS_P1;SDS_P2;PMS_P1;PMS_P2;Temp;Humidity;BMP_temperature;BMP_pressure;BME280_temperature;BME280_humidity;BME280_pressure;Samples;Min_cycle;Max_cycle;Signal;HPM_P1;HPM_P2
2022/08/29 00:00:19;;;;;;;10.18;3.50;;;;;;;15.74;84.09;102000.25;6184956;23;20005;-72
2022/08/29 00:02:50;;;;;;;14.32;3.53;;;;;;;15.71;85.29;101989.78;6182848;23;20015;-71
2022/08/29 00:05:18;;;;;;;11.70;3.90;;;;;;;15.77;84.66;101999.78;6183226;23;20013;-70
2022/08/29 00:07:43;;;;;;;10.32;4.30;;;;;;;15.66;85.89;101997.84;6185144;23;20005;-70
2022/08/29 00:10:09;;;;;;;9.80;3.80;;;;;;;15.67;85.66;101999.50;6157812;23;20435;-72
2022/08/29 00:12:35;;;;;;;12.25;4.38;;;;;;;15.60;86.48;102002.31;6185146;23;20427;-71
2022/08/29 00:15:01;;;;;;;10.43;4.30;;;;;;;15.62;86.02;102008.38;6185323;23;20004;-71
2022/08/29 00:17:26;;;;;;;8.63;4.00;;;;;;;15.58;86.80;102002.56;6158105;23;20015;-70
2022/08/29 00:19:51;;;;;;;8.48;4.75;;;;;;;15.60;86.40;102005.06;6184615;23;20080;-70
2022/08/29 00:22:17;;;;;;;11.77;4.70;;;;;;;15.56;86.83;101995.66;6184998;23;20386;-71
2022/08/29 00:24:42;;;;;;;11.10;4.72;;;;;;;15.51;88.32;101996.34;6184602;23;20031;-71
2022/08/29 00:27:08;;;;;;;9.18;4.57;;;;;;;15.52;87.57;102002.63;6185062;23;20005;-71
2022/08/29 00:29:33;;;;;;;9.25;4.53;;;;;;;15.53;87.42;101993.38;6159009;23;20005;-70
2022/08/29 00:31:58;;;;;;;11.88;5.50;;;;;;;15.54;86.77;101990.44;6184928;23;20005;-72
2022/08/29 00:34:24;;;;;;;10.02;5.05;;;;;;;15.53;87.31;101993.38;6183242;23;20009;-70
2022/08/29 00:36:50;;;;;;;14.40;5.43;;;;;;;15.54;86.84;101995.06;6158337;23;20315;-69
2022/08/29 00:39:16;;;;;;;15.07;5.70;;;;;;;15.51;87.21;101993.63;6184861;23;20013;-71
2022/08/29 00:41:44;;;;;;;11.95;5.68;;;;;;;15.40;87.69;101995.22;6158802;23;20009;-71
2022/08/29 00:44:09;;;;;;;11.77;5.53;;;;;;;15.39;89.15;102003.66;6184461;23;20005;-70
2022/08/29 00:46:49;;;;;;;10.32;5.53;;;;;;;15.42;88.90;102005.91;6185108;23;20426;-71
2022/08/29 00:49:34;;;;;;;13.30;5.53;;;;;;;15.38;88.82;102005.53;6183983;23;20001;-71
2022/08/29 00:52:10;;;;;;;13.20;6.28;;;;;;;15.33;89.88;102002.66;6185141;23;20005;-71
2022/08/29 00:54:39;;;;;;;9.68;5.50;;;;;;;15.32;90.05;101995.53;6184337;23;20056;-70
2022/08/29 00:57:05;;;;;;;13.77;5.97;;;;;;;15.23;90.39;101991.44;6158435;23;20009;-72
2022/08/29 00:59:35;;;;;;;12.02;5.65;;;;;;;15.28;90.03;101997.06;6158557;23;20441;-70
2022/08/29 01:02:03;;;;;;;15.55;6.10;;;;;;;15.25;91.34;102002.97;6182179;23;20035;-70
2022/08/29 01:04:30;;;;;;;15.88;6.63;;;;;;;15.12;92.87;101998.50;6182574;23;20005;-71
2022/08/29 01:06:58;;;;;;;14.95;6.13;;;;;;;15.23;91.78;101999.63;6184122;23;20435;-71
2022/08/29 01:09:24;;;;;;;13.50;5.95;;;;;;;15.12;92.65;102003.13;6184488;23;20016;-72
2022/08/29 01:14:36;;;;;;;15.55;6.53;;;;;;;15.12;92.72;102008.59;6184140;23;20051;-71
2022/08/29 01:17:03;;;;;;;16.48;6.38;;;;;;;15.02;93.16;102009.94;6184091;23;20005;-69
2022/08/29 01:19:40;;;;;;;12.70;6.10;;;;;;;15.05;92.95;102014.09;6157288;23;20032;-71
2022/08/29 01:22:28;;;;;;;14.60;6.38;;;;;;;15.02;92.17;102015.41;6183746;23;20005;-72
2022/08/29 01:25:00;;;;;;;13.68;5.95;;;;;;;14.89;93.90;102020.97;6158398;23;20000;-70
2022/08/29 01:27:29;;;;;;;;;;;;;;;15.05;85.63;102016.81;6184638;23;20885;-69
2022/08/29 01:29:55;;;;;;;14.13;6.82;;;;;;;14.67;96.40;102018.69;6184802;23;19905;-71
2022/08/29 01:32:23;;;;;;;13.48;6.65;;;;;;;14.55;99.58;102012.25;6184546;23;20076;-71
2022/08/29 01:34:48;;;;;;;13.88;6.47;;;;;;;14.49;100.00;102010.41;6184463;23;20005;-70
2022/08/29 01:37:18;;;;;;;13.65;6.45;;;;;;;14.50;99.96;102003.91;6183213;23;20488;-72
2022/08/29 01:39:44;;;;;;;12.45;6.13;;;;;;;14.51;99.58;101998.25;6184696;23;20001;-71
2022/08/29 01:42:14;;;;;;;15.93;6.80;;;;;;;14.45;100.00;101987.44;6184133;23;20012;-70
2022/08/29 01:44:41;;;;;;;20.02;7.80;;;;;;;14.54;100.00;101991.53;6182404;23;20028;-70
2022/08/29 01:47:07;;;;;;;15.63;7.38;;;;;;;14.54;99.79;101996.97;6182530;23;20017;-71
2022/08/29 01:49:35;;;;;;;14.00;7.35;;;;;;;14.46;100.00;101998.09;6186585;23;20003;-70
2022/08/29 01:52:02;;;;;;;14.40;7.25;;;;;;;14.52;100.00;101999.06;6186346;23;20032;-70
2022/08/29 01:54:29;;;;;;;13.05;7.32;;;;;;;14.51;99.73;101995.53;6186321;23;20028;-71
2022/08/29 01:56:55;;;;;;;12.85;7.35;;;;;;;14.52;100.00;101993.63;6186374;23;20005;-70
2022/08/29 01:59:26;;;;;;;20.52;7.60;;;;;;;14.46;100.00;101997.25;6158993;23;20386;-71
2022/08/29 02:01:58;;;;;;;;;;;;;;;14.70;91.16;102007.34;6183676;23;20009;-71
2022/08/29 02:04:24;;;;;;;13.40;8.52;;;;;;;14.48;99.22;102001.44;6184825;23;19997;-71
2022/08/29 02:06:49;;;;;;;18.27;8.65;;;;;;;14.43;100.00;102005.88;6186566;23;20456;-70
2022/08/29 02:09:15;;;;;;;18.05;8.43;;;;;;;14.38;100.00;102003.81;6186217;23;20092;-71
2022/08/29 02:11:41;;;;;;;16.73;8.10;;;;;;;14.36;100.00;101995.88;6185672;23;20040;-71
2022/08/29 02:14:07;;;;;;;15.27;8.95;;;;;;;14.38;100.00;101997.53;6186355;23;20099;-71
2022/08/29 02:16:32;;;;;;;15.75;8.60;;;;;;;14.30;100.00;101998.66;6159461;23;20063;-70
2022/08/29 02:18:59;;;;;;;16.85;9.02;;;;;;;14.27;100.00;101999.91;6185122;23;20005;-71
2022/08/29 02:21:27;;;;;;;14.90;8.52;;;;;;;14.24;100.00;102002.25;6186128;23;20005;-71
2022/08/29 02:23:55;;;;;;;14.95;8.43;;;;;;;14.32;100.00;102013.69;6184648;23;20015;-70
2022/08/29 02:26:20;;;;;;;14.68;7.93;;;;;;;14.32;100.00;102008.25;6185553;23;20331;-71
2022/08/29 02:28:47;;;;;;;16.65;7.85;;;;;;;14.27;100.00;102013.53;6185616;23;20008;-72
2022/08/29 02:31:13;;;;;;;15.50;7.60;;;;;;;14.22;100.00;102018.81;6159744;23;20001;-71
2022/08/29 02:33:39;;;;;;;17.40;8.18;;;;;;;14.13;100.00;102018.25;6186402;23;20012;-70
2022/08/29 02:36:06;;;;;;;15.82;8.18;;;;;;;14.05;100.00;102020.41;6186433;23;20008;-70
2022/08/29 02:38:32;;;;;;;14.07;7.15;;;;;;;14.08;100.00;102026.22;6185780;23;20009;-71
2022/08/29 02:40:58;;;;;;;12.20;7.57;;;;;;;13.99;100.00;102017.50;6185351;23;20009;-70
2022/08/29 02:43:24;;;;;;;15.38;7.45;;;;;;;13.96;100.00;102022.53;6185217;23;20009;-71
2022/08/29 02:45:51;;;;;;;15.90;7.18;;;;;;;13.95;100.00;102026.31;6185966;23;20009;-71
2022/08/29 02:48:17;;;;;;;13.13;7.38;;;;;;;13.93;100.00;102023.81;6185700;23;20012;-69
2022/08/29 02:50:49;;;;;;;16.02;7.25;;;;;;;13.95;100.00;102026.31;6185976;23;20009;-69
2022/08/29 02:53:17;;;;;;;16.02;8.02;;;;;;;13.93;100.00;102022.97;6185989;23;20005;-71
2022/08/29 02:55:42;;;;;;;16.88;8.00;;;;;;;13.96;100.00;102023.38;6185832;23;20009;-71
2022/08/29 02:58:08;;;;;;;13.02;7.25;;;;;;;13.90;100.00;102023.41;6185671;23;20005;-71
2022/08/29 03:00:34;;;;;;;15.75;6.93;;;;;;;13.89;100.00;102029.91;6181550;23;20438;-71
2022/08/29 03:03:00;;;;;;;17.05;7.32;;;;;;;13.79;100.00;102022.22;6185737;23;20427;-71
2022/08/29 03:05:29;;;;;;;17.67;7.63;;;;;;;13.71;100.00;102019.75;6184989;23;20008;-71
2022/08/29 03:07:56;;;;;;;15.23;6.95;;;;;;;13.71;100.00;102020.59;6159483;23;20008;-72
2022/08/29 03:10:22;;;;;;;14.07;7.15;;;;;;;13.76;100.00;102017.22;6185138;23;20020;-70
2022/08/29 03:12:48;;;;;;;14.40;7.07;;;;;;;13.74;100.00;102013.88;6186034;23;20037;-71
2022/08/29 03:15:15;;;;;;;11.88;6.88;;;;;;;13.63;100.00;102023.56;6185485;23;20001;-71
2022/08/29 03:17:40;;;;;;;12.50;6.40;;;;;;;13.54;100.00;102020.28;6185521;23;20044;-71
2022/08/29 03:20:08;;;;;;;14.10;6.60;;;;;;;13.61;100.00;102023.75;6185414;23;20005;-71
2022/08/29 03:22:37;;;;;;;17.15;7.95;;;;;;;13.53;100.00;102024.03;6185686;23;20009;-71
2022/08/29 03:25:04;;;;;;;18.50;7.35;;;;;;;13.59;100.00;102014.19;6184345;23;20425;-71
2022/08/29 03:27:31;;;;;;;17.05;7.53;;;;;;;13.64;100.00;102011.63;6185501;23;20084;-71
2022/08/29 03:29:57;;;;;;;15.23;7.38;;;;;;;13.59;100.00;102009.56;6185923;23;20013;-70
2022/08/29 03:32:23;;;;;;;17.30;8.07;;;;;;;13.55;100.00;102000.16;6158872;23;20371;-71
2022/08/29 03:34:49;;;;;;;14.57;7.38;;;;;;;13.57;100.00;102006.25;6185145;23;20001;-71
2022/08/29 03:37:14;;;;;;;18.98;7.50;;;;;;;13.63;100.00;102002.66;6158833;23;20059;-69
2022/08/29 03:39:40;;;;;;;11.70;6.75;;;;;;;13.64;100.00;101998.84;6185646;23;20059;-70
2022/08/29 03:42:06;;;;;;;14.50;6.95;;;;;;;13.56;100.00;101990.97;6185707;23;20038;-72
2022/08/29 03:44:33;;;;;;;13.80;7.22;;;;;;;13.58;100.00;101986.13;6185087;23;20009;-71
2022/08/29 03:46:58;;;;;;;17.67;7.97;;;;;;;13.61;100.00;101985.69;6185693;23;20088;-70
2022/08/29 03:49:24;;;;;;;16.65;8.48;;;;;;;13.62;100.00;101976.50;6158217;23;20092;-71
2022/08/29 03:51:49;;;;;;;17.85;8.75;;;;;;;13.67;100.00;101975.84;6159168;23;20005;-71
2022/08/29 03:54:14;;;;;;;22.27;9.70;;;;;;;13.69;100.00;101978.34;6184994;23;20009;-70
2022/08/29 03:56:40;;;;;;;17.33;8.43;;;;;;;13.61;100.00;101972.09;6185124;23;20008;-70
2022/08/29 03:59:05;;;;;;;13.85;7.93;;;;;;;13.64;100.00;101970.84;6185214;23;20008;-72
2022/08/29 04:01:32;;;;;;;19.30;8.48;;;;;;;13.63;100.00;101972.72;6182113;23;20036;-70
2022/08/29 04:03:57;;;;;;;16.83;8.10;;;;;;;13.63;100.00;101967.28;6157927;23;20501;-71
2022/08/29 04:06:29;;;;;;;14.90;7.57;;;;;;;13.63;100.00;101969.16;6184874;23;20080;-71
2022/08/29 04:08:55;;;;;;;15.60;7.97;;;;;;;13.64;100.00;101966.22;6184815;23;20013;-71
2022/08/29 04:11:25;;;;;;;18.63;8.98;;;;;;;13.57;100.00;101970.88;6184758;23;20012;-70
2022/08/29 04:13:52;;;;;;;18.38;8.02;;;;;;;13.57;100.00;101972.75;6185148;23;20063;-69
2022/08/29 04:16:26;;;;;;;18.25;8.00;;;;;;;13.61;100.00;101982.16;6184141;23;20009;-71
2022/08/29 04:18:51;;;;;;;14.43;8.07;;;;;;;13.54;100.00;101987.63;6184658;23;20012;-71
2022/08/29 04:21:17;;;;;;;16.23;7.97;;;;;;;13.52;100.00;101984.28;6184658;23;20479;-71
2022/08/29 04:23:44;;;;;;;16.10;8.18;;;;;;;13.55;100.00;101981.13;6184223;23;20009;-70
2022/08/29 04:26:16;;;;;;;16.30;7.80;;;;;;;13.60;100.00;101984.03;6184941;23;20005;-70
2022/08/29 04:28:41;;;;;;;16.95;8.27;;;;;;;13.63;100.00;101989.03;6158170;23;20040;-70
2022/08/29 04:31:11;;;;;;;21.65;8.55;;;;;;;13.60;100.00;101983.19;6158603;23;20013;-69
2022/08/29 04:33:36;;;;;;;15.93;8.13;;;;;;;13.67;100.00;101994.06;6183433;23;20088;-71
2022/08/29 04:36:05;;;;;;;16.17;7.88;;;;;;;13.56;100.00;101990.97;6185341;23;20375;-71
2022/08/29 04:38:31;;;;;;;16.67;7.88;;;;;;;13.55;100.00;101997.44;6184975;23;20013;-71
2022/08/29 04:40:56;;;;;;;13.63;7.78;;;;;;;13.47;100.00;101993.09;6158430;23;20005;-70
2022/08/29 04:43:21;;;;;;;15.05;7.00;;;;;;;13.37;100.00;102000.88;6184554;23;20104;-70
2022/08/29 04:45:56;;;;;;;16.15;7.13;;;;;;;13.25;100.00;101995.22;6184260;23;20017;-69
2022/08/29 04:48:21;;;;;;;12.07;6.90;;;;;;;13.16;100.00;101990.25;6157603;23;20518;-71
2022/08/29 04:50:56;;;;;;;17.73;7.43;;;;;;;13.10;100.00;101992.81;6184716;23;20005;-70
2022/08/29 04:53:22;;;;;;;12.75;7.18;;;;;;;13.09;100.00;102002.00;6184925;23;20005;-69
2022/08/29 04:55:59;;;;;;;14.63;7.85;;;;;;;13.03;100.00;102005.56;6183167;23;20001;-70
2022/08/29 04:58:25;;;;;;;14.02;7.20;;;;;;;13.02;100.00;102006.59;6184320;23;20331;-71
2022/08/29 05:00:51;;;;;;;15.20;7.18;;;;;;;13.10;100.00;102011.81;6155734;23;19997;-71
2022/08/29 05:03:17;;;;;;;14.57;6.57;;;;;;;13.08;100.00;101999.50;6158215;23;20434;-70
2022/08/29 05:05:42;;;;;;;12.10;6.80;;;;;;;13.05;100.00;101999.91;6184393;23;20016;-70
2022/08/29 05:08:07;;;;;;;15.15;6.85;;;;;;;13.07;100.00;102001.38;6184009;23;20032;-70
2022/08/29 05:10:33;;;;;;;16.90;6.57;;;;;;;13.07;100.00;101995.09;6158152;23;20152;-70
2022/08/29 05:13:00;;;;;;;13.77;6.30;;;;;;;13.07;100.00;101992.38;6158466;23;20005;-70
2022/08/29 05:15:26;;;;;;;14.05;6.07;;;;;;;13.06;100.00;101996.16;6183747;23;20435;-71
2022/08/29 05:17:52;;;;;;;11.25;5.78;;;;;;;13.08;100.00;102011.19;6184896;23;20001;-71
2022/08/29 05:20:18;;;;;;;11.05;5.28;;;;;;;13.09;100.00;102014.75;6184319;23;20001;-70
2022/08/29 05:22:43;;;;;;;17.15;6.50;;;;;;;13.08;100.00;102005.75;6184429;23;20015;-71
2022/08/29 05:25:11;;;;;;;13.15;6.03;;;;;;;13.12;100.00;102009.72;6184457;23;20032;-70
2022/08/29 05:27:39;;;;;;;14.88;6.10;;;;;;;13.19;100.00;102020.56;6157713;23;20063;-70
2022/08/29 05:30:05;;;;;;;15.65;6.28;;;;;;;13.26;100.00;102028.69;6183845;23;20001;-71
2022/08/29 05:32:30;;;;;;;13.57;6.07;;;;;;;13.35;100.00;102032.06;6184521;23;20012;-71
2022/08/29 05:34:56;;;;;;;21.35;5.80;;;;;;;13.39;100.00;102027.84;6158422;23;20005;-70
2022/08/29 05:37:22;;;;;;;11.05;5.38;;;;;;;13.43;100.00;102029.91;6184488;23;20001;-71
2022/08/29 05:39:48;;;;;;;11.73;5.20;;;;;;;13.44;100.00;102036.19;6184321;23;20005;-71
2022/08/29 05:42:15;;;;;;;13.57;5.38;;;;;;;13.46;100.00;102032.19;6184062;23;20072;-70
2022/08/29 05:44:41;;;;;;;15.93;5.50;;;;;;;13.49;100.00;102041.00;6184088;23;20011;-71
2022/08/29 05:47:11;;;;;;;13.68;5.68;;;;;;;13.46;100.00;102042.25;6158422;23;20088;-71
2022/08/29 05:49:38;;;;;;;16.50;5.93;;;;;;;13.51;100.00;102025.28;6157372;23;20008;-70
2022/08/29 05:52:04;;;;;;;12.10;5.30;;;;;;;13.57;100.00;102035.28;6182791;23;20009;-73
2022/08/29 05:54:31;;;;;;;13.18;5.55;;;;;;;13.59;100.00;102044.91;6184050;23;20001;-70
2022/08/29 05:56:57;;;;;;;13.30;5.43;;;;;;;13.67;100.00;102040.28;6184424;23;20501;-72
2022/08/29 05:59:22;;;;;;;19.75;5.22;;;;;;;13.65;100.00;102035.06;6184322;23;20009;-71
2022/08/29 06:01:48;;;;;;;11.00;5.05;;;;;;;13.74;100.00;102031.03;6181266;23;20005;-71
2022/08/29 06:04:13;;;;;;;13.57;4.93;;;;;;;13.76;100.00;102044.44;6183411;23;20123;-70
2022/08/29 06:06:39;;;;;;;19.85;5.18;;;;;;;13.80;100.00;102042.94;6158003;23;20005;-70
2022/08/29 06:09:05;;;;;;;15.27;5.70;;;;;;;13.80;100.00;102051.13;6153006;23;20009;-71
2022/08/29 06:11:32;;;;;;;11.45;5.05;;;;;;;13.84;100.00;102038.72;6154545;23;20005;-70
2022/08/29 06:13:58;;;;;;;10.55;5.55;;;;;;;13.85;100.00;102043.13;6154408;23;20009;-71
2022/08/29 06:16:25;;;;;;;19.17;5.50;;;;;;;13.89;100.00;102041.63;6154849;23;20001;-70
2022/08/29 06:18:54;;;;;;;17.80;5.55;;;;;;;13.89;100.00;102043.50;6154026;23;20006;-71
2022/08/29 06:21:19;;;;;;;21.02;5.35;;;;;;;13.92;100.00;102049.38;6178025;23;20010;-70
2022/08/29 06:23:45;;;;;;;15.40;5.93;;;;;;;13.95;100.00;102054.38;6154179;23;20376;-69
2022/08/29 06:26:11;;;;;;;21.27;5.75;;;;;;;13.96;100.00;102061.47;6154860;23;20009;-69
2022/08/29 06:28:39;;;;;;;14.32;5.47;;;;;;;13.96;100.00;102050.56;6154654;23;20010;-69
2022/08/29 06:31:07;;;;;;;8.27;5.15;;;;;;;13.99;100.00;102055.59;6154832;23;20009;-69
2022/08/29 06:33:33;;;;;;;11.45;5.60;;;;;;;14.05;100.00;102061.22;6177138;23;20308;-69
2022/08/29 06:35:58;;;;;;;14.88;5.35;;;;;;;14.03;100.00;102056.00;6156649;23;20068;-69
2022/08/29 06:38:23;;;;;;;12.40;5.10;;;;;;;14.09;100.00;102057.03;6155522;23;20375;-70
2022/08/29 06:40:49;;;;;;;14.02;5.07;;;;;;;14.17;100.00;102054.03;6156083;23;20041;-68
2022/08/29 06:43:14;;;;;;;12.35;5.60;;;;;;;14.25;100.00;102067.38;6156260;23;20029;-71
2022/08/29 06:49:54;;;;;;;13.57;5.80;;;;;;;14.46;100.00;102071.63;6154421;23;20356;-71
2022/08/29 06:52:19;;;;;;;11.02;6.10;;;;;;;14.60;98.73;102088.69;6179267;23;20499;-69
2022/08/29 06:54:45;;;;;;;11.57;5.50;;;;;;;14.73;98.01;102078.78;6156325;23;20039;-70
2022/08/29 06:57:10;;;;;;;10.00;5.72;;;;;;;14.71;96.12;102074.38;6156181;23;20028;-69
2022/08/29 07:06:21;;;;;;;13.48;5.93;;;;;;;15.10;94.03;102071.50;6152522;23;20470;-70
2022/08/29 07:12:08;;;;;;;14.02;5.57;;;;;;;15.28;81.42;102062.50;6153767;23;20095;-70
2022/08/29 07:14:33;;;;;;;11.73;5.57;;;;;;;15.46;82.24;102069.00;6155898;23;20002;-70
2022/08/29 07:16:59;;;;;;;12.45;5.72;;;;;;;15.48;76.48;102064.19;6155614;23;20006;-70
2022/08/29 07:19:25;;;;;;;12.63;5.35;;;;;;;15.62;77.34;102068.41;6156236;23;20052;-70
2022/08/29 07:21:52;;;;;;;11.20;5.55;;;;;;;15.78;76.14;102069.72;6154969;23;20006;-69
2022/08/29 07:24:17;;;;;;;11.57;5.72;;;;;;;15.90;75.05;102072.50;6154635;23;20009;-70
2022/08/29 07:26:43;;;;;;;12.98;5.47;;;;;;;16.00;75.63;102061.81;6156012;23;20032;-70
2022/08/29 07:29:13;;;;;;;10.73;5.63;;;;;;;16.20;75.37;102067.03;6156288;23;20041;-70
2022/08/29 07:31:39;;;;;;;12.32;5.20;;;;;;;16.31;73.36;102070.84;6156027;23;20010;-70
2022/08/29 07:34:05;;;;;;;10.27;5.13;;;;;;;16.36;70.60;102062.78;6156204;23;20016;-70
2022/08/29 07:36:32;;;;;;;11.57;5.20;;;;;;;16.47;71.24;102067.44;6155327;23;20501;-71
2022/08/29 07:38:58;;;;;;;11.27;5.22;;;;;;;16.53;70.46;102060.22;6156068;23;20006;-71
2022/08/29 07:41:24;;;;;;;12.73;5.20;;;;;;;16.59;70.20;102050.22;6155217;23;20064;-71
2022/08/29 07:43:50;;;;;;;12.80;4.57;;;;;;;16.63;68.22;102045.94;6156039;23;20016;-75
2022/08/29 07:46:17;;;;;;;10.77;4.68;;;;;;;16.61;66.49;102048.91;6154178;23;20434;-71
2022/08/29 07:48:42;;;;;;;9.50;4.10;;;;;;;16.61;66.20;102048.09;6155246;23;20024;-70
2022/08/29 07:51:10;;;;;;;9.18;4.38;;;;;;;16.72;66.93;102058.19;6155876;23;20408;-70
2022/08/29 07:53:36;;;;;;;6.65;3.63;;;;;;;16.75;64.26;102059.63;6155785;23;20012;-71
2022/08/29 07:56:06;;;;;;;12.18;4.10;;;;;;;16.76;65.17;102067.59;6156045;23;20037;-72
2022/08/29 07:58:32;;;;;;;12.85;3.95;;;;;;;16.81;65.52;102062.22;6155757;23;20304;-75
2022/08/29 08:00:57;;;;;;;9.00;3.63;;;;;;;16.83;63.36;102057.38;6153254;23;20017;-72
2022/08/29 08:03:22;;;;;;;8.95;3.50;;;;;;;16.82;62.47;102061.19;6154663;23;20031;-71
2022/08/29 08:05:48;;;;;;;5.97;3.30;;;;;;;16.88;62.82;102064.91;6153179;23;20024;-72
2022/08/29 08:08:13;;;;;;;7.40;3.35;;;;;;;16.86;62.05;102057.97;6156367;23;20419;-71
2022/08/29 08:10:38;;;;;;;9.10;3.92;;;;;;;16.95;62.68;102062.88;6185077;23;20013;-70
2022/08/29 08:13:04;;;;;;;8.68;3.47;;;;;;;17.01;61.72;102063.81;6185520;23;20300;-68
2022/08/29 08:15:29;;;;;;;8.38;3.85;;;;;;;17.06;61.30;102061.22;6158272;23;20075;-68
2022/08/29 08:17:54;;;;;;;13.52;4.30;;;;;;;17.04;62.16;102046.09;6184919;23;20060;-69
2022/08/29 08:20:19;;;;;;;10.77;4.05;;;;;;;17.14;62.94;102062.75;6185859;23;20012;-68
2022/08/29 08:22:45;;;;;;;12.20;3.50;;;;;;;17.18;62.62;102063.91;6184843;23;20016;-68
2022/08/29 08:25:10;;;;;;;9.45;3.53;;;;;;;17.25;62.16;102059.16;6184586;23;20059;-69
2022/08/29 08:27:36;;;;;;;5.72;3.05;;;;;;;17.32;61.48;102059.84;6185049;23;20001;-69
2022/08/29 08:30:02;;;;;;;8.13;3.40;;;;;;;17.39;60.75;102054.25;6185120;23;20001;-69
2022/08/29 08:32:27;;;;;;;11.50;3.72;;;;;;;17.44;60.59;102062.56;6185371;23;20009;-69
2022/08/29 08:34:53;;;;;;;7.68;3.90;;;;;;;17.44;61.19;102059.84;6183850;23;20011;-70
2022/08/29 08:37:18;;;;;;;6.78;3.38;;;;;;;17.48;60.75;102068.38;6184743;23;20008;-68
2022/08/29 08:39:43;;;;;;;7.43;3.03;;;;;;;17.46;59.04;102067.81;6182633;23;20083;-68
2022/08/29 08:42:41;;;;;;;10.90;3.40;;;;;;;17.51;61.17;102059.69;6184140;23;20001;-68
2022/08/29 08:45:18;;;;;;;8.50;3.15;;;;;;;17.46;59.79;102054.94;6158324;23;20009;-68
2022/08/29 08:48:03;;;;;;;10.90;3.65;;;;;;;17.51;60.55;102046.00;6184122;23;20047;-68
2022/08/29 08:50:58;;;;;;;7.45;3.70;;;;;;;17.59;60.36;102053.00;6184724;23;20008;-69
2022/08/29 08:53:38;;;;;;;6.40;3.20;;;;;;;17.64;59.08;102053.94;6158752;23;20069;-74
2022/08/29 08:56:30;;;;;;;7.88;3.90;;;;;;;17.70;58.87;102057.63;6185016;23;20009;-68
2022/08/29 08:59:17;;;;;;;8.23;3.65;;;;;;;17.71;59.37;102053.81;6154755;23;20084;-68
2022/08/29 09:02:25;;;;;;;8.20;3.55;;;;;;;17.74;59.76;102067.00;6180621;23;20008;-69
2022/08/29 09:05:09;;;;;;;11.70;4.03;;;;;;;17.79;59.16;102064.34;6164258;23;20316;-68
2022/08/29 09:07:35;;;;;;;7.40;3.30;;;;;;;17.82;57.89;102074.00;6184698;23;20005;-68
2022/08/29 09:10:24;;;;;;;11.10;3.80;;;;;;;17.79;58.96;102058.06;6158117;23;20497;-69
2022/08/29 09:12:53;;;;;;;9.43;3.40;;;;;;;17.77;58.61;102063.78;6184409;23;20005;-69
2022/08/29 09:15:23;;;;;;;10.63;4.38;;;;;;;17.80;57.96;102066.03;6184939;23;20005;-69
2022/08/29 09:17:56;;;;;;;9.00;3.90;;;;;;;17.83;58.21;102071.03;6184075;23;20009;-70
2022/08/29 09:20:35;;;;;;;10.75;3.88;;;;;;;17.87;58.65;102072.19;6183900;23;20328;-69
2022/08/29 09:23:12;;;;;;;11.10;3.80;;;;;;;17.93;58.12;102075.88;6183381;23;20009;-68
2022/08/29 09:25:37;;;;;;;7.18;3.88;;;;;;;17.99;58.46;102068.59;6184217;23;20071;-68
2022/08/29 09:28:08;;;;;;;10.70;4.28;;;;;;;18.01;57.56;102077.38;6183248;23;20001;-69
2022/08/29 09:30:35;;;;;;;10.87;4.70;;;;;;;18.03;57.04;102078.00;6184602;23;20001;-68
2022/08/29 09:33:15;;;;;;;13.75;4.40;;;;;;;18.05;58.21;102084.06;6184117;23;20005;-68
2022/08/29 09:35:45;;;;;;;6.93;3.85;;;;;;;18.06;57.13;102092.03;6183975;23;20473;-68
2022/08/29 09:38:16;;;;;;;9.10;3.67;;;;;;;18.06;57.14;102088.47;6184686;23;20088;-68
2022/08/29 09:40:58;;;;;;;;;;;;;;;18.13;58.57;102088.28;6183292;23;20004;-68
2022/08/29 09:43:25;;;;;;;7.72;3.90;;;;;;;18.00;56.42;102076.56;6184492;23;19904;-68
2022/08/29 09:46:07;;;;;;;11.10;4.30;;;;;;;18.02;57.62;102066.19;6184556;23;20013;-68
2022/08/29 09:48:35;;;;;;;10.88;3.47;;;;;;;18.00;57.17;102075.75;6184819;23;20077;-68
2022/08/29 09:51:30;;;;;;;9.95;4.28;;;;;;;18.00;57.81;102078.50;6183140;23;20391;-68
2022/08/29 09:54:25;;;;;;;7.20;3.30;;;;;;;18.02;57.96;102081.81;6183572;23;20020;-69
2022/08/29 09:57:12;;;;;;;12.85;4.00;;;;;;;18.09;58.19;102073.41;6183664;23;20032;-68
2022/08/29 09:59:41;;;;;;;8.40;3.40;;;;;;;18.16;56.96;102072.22;6184423;23;20012;-68
2022/08/29 10:02:18;;;;;;;6.05;4.03;;;;;;;18.16;57.09;102063.16;6182275;23;20013;-68
2022/08/29 10:04:46;;;;;;;11.45;3.97;;;;;;;18.17;56.58;102064.81;6184198;23;20040;-68
2022/08/29 10:07:18;;;;;;;8.32;3.90;;;;;;;18.14;56.82;102057.09;6184590;23;20099;-69
2022/08/29 10:10:24;;;;;;;8.70;3.90;;;;;;;18.10;57.44;102070.47;6152905;23;20155;-68
2022/08/29 10:13:10;;;;;;;8.18;3.72;;;;;;;18.13;57.95;102080.06;6139389;23;20420;-68
2022/08/29 10:16:18;;;;;;;7.38;3.97;;;;;;;18.16;58.21;102074.97;6155584;23;20006;-69
2022/08/29 10:18:49;;;;;;;8.70;4.38;;;;;;;18.15;56.59;102078.75;6177834;23;20029;-70
2022/08/29 10:21:27;;;;;;;7.03;3.78;;;;;;;18.21;58.00;102072.28;6155906;23;20012;-70
2022/08/29 10:24:10;;;;;;;8.70;3.80;;;;;;;18.24;57.32;102080.03;6156132;23;20008;-69
2022/08/29 10:27:15;;;;;;;7.35;3.50;;;;;;;18.28;58.46;102071.31;6156461;23;20033;-69
2022/08/29 10:29:53;;;;;;;9.25;3.90;;;;;;;18.27;57.64;102069.63;6153970;23;20012;-69
2022/08/29 10:32:43;;;;;;;5.95;3.65;;;;;;;18.38;57.79;102060.53;6178756;23;20363;-69
2022/08/29 10:35:23;;;;;;;6.43;3.65;;;;;;;18.57;57.52;102061.94;6156666;23;20021;-69
2022/08/29 10:37:58;;;;;;;7.38;3.90;;;;;;;18.70;56.94;102051.72;6156937;23;20006;-69
2022/08/29 10:40:42;;;;;;;8.60;4.70;;;;;;;18.74;56.20;102055.63;6157000;23;20009;-73
2022/08/29 10:43:52;;;;;;;10.50;3.80;;;;;;;18.78;56.60;102056.78;6155861;23;20014;-72
2022/08/29 10:46:17;;;;;;;14.73;4.60;;;;;;;18.84;55.70;102050.31;6152921;23;20009;-71
2022/08/29 10:48:59;;;;;;;5.00;3.83;;;;;;;19.02;56.21;102056.59;6152729;23;20100;-72
2022/08/29 10:51:37;;;;;;;10.30;4.32;;;;;;;19.06;55.34;102053.09;6155079;23;20010;-70
2022/08/29 10:54:17;;;;;;;9.13;4.45;;;;;;;19.04;54.90;102051.72;6154617;23;20010;-72
2022/08/29 10:56:47;;;;;;;11.88;4.13;;;;;;;19.19;56.07;102049.19;6155794;23;20363;-72
2022/08/29 10:59:43;;;;;;;12.15;4.32;;;;;;;19.30;55.95;102039.97;6179258;23;20028;-72
2022/08/29 11:02:40;;;;;;;11.32;4.38;;;;;;;19.45;55.22;102033.03;6153304;23;20093;-72
2022/08/29 11:05:15;;;;;;;9.52;4.55;;;;;;;19.42;54.30;102034.38;6155913;23;20008;-71
2022/08/29 11:07:57;;;;;;;11.27;4.00;;;;;;;19.45;54.39;102030.28;6153871;23;20010;-68
2022/08/29 11:10:29;;;;;;;7.93;4.60;;;;;;;19.37;54.14;102026.09;6183320;23;20024;-68
2022/08/29 11:13:00;;;;;;;10.95;3.85;;;;;;;19.42;53.40;102019.81;6185400;23;20066;-68
2022/08/29 11:15:43;;;;;;;9.15;3.95;;;;;;;19.50;54.47;102027.59;6184434;23;20080;-69
2022/08/29 11:18:30;;;;;;;9.38;4.22;;;;;;;19.62;54.16;102020.03;6185613;23;20088;-68
2022/08/29 11:21:17;;;;;;;10.80;4.32;;;;;;;19.74;53.67;102021.81;6158908;23;20095;-68
2022/08/29 11:23:46;;;;;;;8.75;4.20;;;;;;;19.79;52.65;102019.16;6185759;23;20012;-70
2022/08/29 11:26:25;;;;;;;8.07;3.72;;;;;;;19.80;52.95;102016.16;6185101;23;20011;-73
2022/08/29 11:29:12;;;;;;;7.22;3.42;;;;;;;19.83;52.82;102012.06;6185506;23;20008;-68
2022/08/29 11:32:10;;;;;;;9.00;3.70;;;;;;;19.88;52.73;102000.28;6185465;23;20012;-68
2022/08/29 11:34:54;;;;;;;8.07;3.53;;;;;;;19.82;52.06;101996.66;6185582;23;20005;-68
2022/08/29 11:37:36;;;;;;;5.50;3.40;;;;;;;20.01;53.28;102006.19;6186320;23;20001;-68
2022/08/29 11:40:36;;;;;;;10.70;3.88;;;;;;;20.16;52.80;102001.94;6185665;23;20021;-68
2022/08/29 11:43:04;;;;;;;8.13;3.85;;;;;;;20.13;50.91;101991.47;6185483;23;20005;-69
2022/08/29 11:45:37;;;;;;;10.02;3.45;;;;;;;20.19;51.74;102001.41;6184468;23;20005;-68
2022/08/29 11:48:39;;;;;;;5.95;3.47;;;;;;;20.28;52.18;101988.84;6184215;23;20168;-68